Atlantic - Newfoundland: Past 24 Hour Conditions

 

Nickerson Bank - 44251

06:00 AM AST 20 December 2014Buoy position: 46.45N 53.38W
Disclaimer

This table is a summary of hourly weather conditions for the past 24 hours.
Please note that these observations might not always be representative of weather conditions over their associated marine area.

Date / Time
(AST)
Wind(knots) Wave height(m) Wave period(s) Pressure(kPa) Air tempC) Water tempC)
20 December 2014
6:00 NNE 21 gust 27 2.9 10.0 101.5 2 5
5:00 NNE 18 gust 23 2.8 12.0 101.4 2 5
4:00 NE 18 gust 23 3.0 10.0 101.2 2 5
3:00 NNE 16 gust 19 3.3 11.0 101.2 3 5
2:00 NW 10 gust 16 3.3 10.0 101.1 3 5
1:00 SW 8 gust 10 3.4 11.0 101.1 4 5
0:00 SW 8 gust 12 3.4 11.0 100.9 4 5
19 December 2014
23:00 W 8 gust 10 3.4 10.0 100.9 4 5
22:00 WSW 14 gust 18 3.1 11.0 100.8 4 5
21:00 WSW 12 gust 16 3.5 10.0 100.7 4 5
20:00 SW 12 gust 16 3.2 8.0 100.6 4 5
19:00 SW 16 gust 19 3.4 9.0 100.5 4 5
18:00 WSW 16 gust 19 3.3 10.0 100.5 4 5
17:00 SW 18 gust 21 3.5 10.0 100.4 5 5
16:00 SW 19 gust 23 3.1 10.0 100.3 5 5
15:00 SW 16 gust 18 3.2 8.0 100.3 5 5
14:00 SW 18 gust 23 3.2 8.0 100.2 5 5
13:00 SW 19 gust 21 3.2 8.0 100.1 5 5
12:00 SW 14 gust 18 3.0 8.0 100.1 5 5
11:00 SSW 12 gust 14 2.9 9.0 100.1 5 5
10:00 SW 14 gust 18 3.4 8.0 100.1 5 5
9:00 SW 18 gust 21 3.2 8.0 100.1 5 5
8:00 SW 23 gust 29 3.3 7.0 100.0 6 5
7:00 SSW 18 gust 19 3.3 7.0 99.9 5 5
6:00 SSW 19 gust 25 3.2 8.0 99.8 6 5
Map of Atlantic - Newfoundland marine weather areas Southwestern Grand Banks - 44138 Banquereau - 44139 Tail of the Bank - 44140 Nickerson Bank - 44251 Northeast Burgeo Bank - 44255 Blanc-Sablon Airport Cap Whittle Chevery Natashquan Airport Heath Point Miscou Island Grand Étang Ingonish Beach North Mountain St.Paul Island J.A. Douglas McCurdy Sydney Airport Charlottetown Airport East Point North Cape Argentia Bonavista Burgeo Cape Race Corner Brook Daniel's Harbour Englee Ferolle Point La Scie Port aux Basques Rocky Harbour Sagona Island St. Anthony Airport St. John's Int'l Airport St. Lawrence Stephenville Airport Twillingate Winterland Wreckhouse Cartwright Airport Mary's Harbour Grates Cove Pool's Island Marticot Island Long Pond Îles de la Madeleine Airport
Legend:
buoy Buoy
land station Land Station

Atlantic - Newfoundland Area

Another Region

What we are doing

Date modified: